Main page
METAR-TAF:

METAR-TAF

Airports :

London Southend Airport

London-Southend, England

latitude: 51-34N, longitude: 000-42E, elevation: 15 m

Current weather observation

The report was made 26 minutes ago, at 13:20 UTC
Wind 8 kt from the South/Southwest
Temperature 9°C
Humidity 71%
Pressure 999 hPa
Visibility 10 km or more
Few clouds at a height of 4500 ft

METAR: EGMC 131320Z 21008KT 9999 FEW045 09/04 Q0999

Time: 13:46 (13:46 UTC)

Forecast

The report was made 2 hours and 48 minutes ago, at 10:58 UTC
Forecast valid from 13 at 12 UTC to 13 at 21 UTC
Wind 8 kt from the West
Visibility 10 km or more
Scattered clouds at a height of 4000 ft
Becoming
from 13 at 12 UTC to 13 at 15 UTC
Wind 10 kt from the South/Southwest

TAF: EGMC 131058Z 1312/1321 27008KT 9999 SCT040 BECMG 1312/1315 20010KT

Weather observations and forecasts of more than 4000 airports (METAR and TAF reports).

The available stations are represented by yellow and red dots on the map.

Hover mouse over dot to see the name of the station.

Then click to see weather observations and forecasts.

To change the map : click on the green buttons with a black cross to zoom in, on the green button with a dash to zoom out, or on the green arrows for adjacent maps.


METAR-TAF: